createdAt,value
2022-11-29T07:44:06.420Z,97478.66
2022-11-29T07:46:34.951Z,97479.78
2022-11-29T07:49:03.392Z,97478.66
2022-11-29T07:51:32.346Z,97469.59
2022-11-29T07:54:01.136Z,97474.78
2022-11-29T07:56:29.869Z,97484.66
2022-11-29T07:58:59.986Z,97482.09
2022-11-29T08:01:28.451Z,97482.91
2022-11-29T08:03:56.920Z,97489.41
2022-11-29T08:06:26.383Z,97488.28
2022-11-29T08:08:54.844Z,97486.00
2022-11-29T08:11:23.305Z,97485.69
2022-11-29T08:13:51.724Z,97488.94
2022-11-29T08:16:21.529Z,97487.84
2022-11-29T08:18:50.046Z,97492.22
2022-11-29T08:21:18.529Z,97488.66
2022-11-29T08:23:47.531Z,97496.94
2022-11-29T08:26:17.317Z,97494.16
2022-11-29T08:28:45.946Z,97496.59
2022-11-29T08:31:14.448Z,97501.00
2022-11-29T08:33:44.646Z,97506.69
2022-11-29T08:36:15.235Z,97502.28
2022-11-29T08:38:44.191Z,97503.28
2022-11-29T08:41:14.547Z,97507.34
2022-11-29T08:43:42.952Z,97507.84
2022-11-29T08:46:18.039Z,97511.09
2022-11-29T08:48:49.141Z,97511.28
2022-11-29T08:51:17.892Z,97504.13
2022-11-29T08:53:46.487Z,97511.28
2022-11-29T08:57:04.309Z,97512.91
2022-11-29T08:59:07.061Z,97509.81
2022-11-29T09:01:35.639Z,97510.63
2022-11-29T09:04:07.606Z,97517.78
2022-11-29T09:06:40.140Z,97516.16
2022-11-29T09:09:08.971Z,97521.34
2022-11-29T09:11:37.790Z,97522.47
2022-11-29T09:14:07.740Z,97524.41
2022-11-29T09:16:38.108Z,97533.81
2022-11-29T09:19:08.712Z,97529.44
2022-11-29T09:21:37.593Z,97534.94
2022-11-29T09:24:08.007Z,97534.94
2022-11-29T09:26:37.974Z,97537.69
2022-11-29T09:29:07.751Z,97533.31
2022-11-29T09:31:36.404Z,97532.50
2022-11-29T09:34:04.845Z,97536.38
2022-11-29T09:36:34.635Z,97539.16
2022-11-29T09:39:03.758Z,97541.91
2022-11-29T09:41:53.330Z,97543.84
2022-11-29T09:44:35.827Z,97539.97
2022-11-29T09:47:23.663Z,97548.22
2022-11-29T09:50:02.304Z,97541.09
2022-11-29T09:52:42.949Z,97543.03
2022-11-29T09:55:29.482Z,97544.16
2022-11-29T09:58:03.728Z,97543.34
2022-11-29T10:00:36.622Z,97549.50
2022-11-29T10:03:15.034Z,97551.25
2022-11-29T10:05:47.615Z,97546.38
2022-11-29T10:08:25.496Z,97553.34
2022-11-29T10:10:58.935Z,97560.28
2022-11-29T10:13:31.842Z,97559.75
2022-11-29T10:16:06.617Z,97563.63
2022-11-29T10:18:39.029Z,97561.50
2022-11-29T10:21:13.598Z,97556.00
2022-11-29T10:23:48.119Z,97552.75
2022-11-29T10:26:18.021Z,97549.19
2022-11-29T10:28:48.658Z,97556.94
2022-11-29T10:31:22.091Z,97552.25
2022-11-29T10:33:51.254Z,97552.25
2022-11-29T10:36:27.755Z,97551.44
2022-11-29T10:39:00.562Z,97554.50
2022-11-29T10:41:29.271Z,97553.38
2022-11-29T10:43:59.673Z,97554.50
2022-11-29T10:46:31.846Z,97549.81
2022-11-29T10:49:03.689Z,97550.13
2022-11-29T10:51:32.959Z,97542.19
2022-11-29T10:54:19.161Z,97544.13
2022-11-29T10:56:48.978Z,97551.56
2022-11-29T10:59:22.295Z,97544.13
2022-11-29T11:01:51.873Z,97541.00
2022-11-29T11:04:29.440Z,97548.44
2022-11-29T11:07:01.279Z,97546.00
2022-11-29T11:09:36.366Z,97544.88
2022-11-29T11:12:08.546Z,97550.88
2022-11-29T11:14:38.737Z,97549.75
2022-11-29T11:17:22.281Z,97547.81
2022-11-29T11:19:57.341Z,97540.06
2022-11-29T11:22:27.332Z,97552.69
2022-11-29T11:25:02.914Z,97552.69
2022-11-29T11:27:34.264Z,97545.56
2022-11-29T11:30:03.414Z,97550.25
2022-11-29T11:32:31.962Z,97548.63
2022-11-29T11:35:02.795Z,97552.50
2022-11-29T11:37:33.421Z,97556.41
2022-11-29T11:40:26.320Z,97550.06
2022-11-29T11:42:57.380Z,97552.00
2022-11-29T11:45:34.970Z,97551.50
2022-11-29T11:48:11.634Z,97555.41
2022-11-29T11:50:45.321Z,97558.78
2022-11-29T11:53:22.272Z,97551.66
2022-11-29T11:56:01.739Z,97554.41
2022-11-29T11:58:32.235Z,97554.72
2022-11-29T12:01:14.398Z,97556.66
2022-11-29T12:03:52.716Z,97560.53
2022-11-29T12:06:47.197Z,97562.16
2022-11-29T12:09:24.523Z,97568.78
2022-11-29T12:12:05.328Z,97571.53
2022-11-29T12:14:52.776Z,97566.84
2022-11-29T12:17:31.926Z,97566.03
2022-11-29T12:20:12.950Z,97563.28
2022-11-29T12:22:49.702Z,97569.91
2022-11-29T12:25:22.645Z,97573.00
2022-11-29T12:27:52.707Z,97570.22
2022-11-29T12:30:21.133Z,97573.00
2022-11-29T12:33:02.532Z,97577.50
2022-11-29T12:35:54.827Z,97585.44
2022-11-29T12:38:44.190Z,97578.31
2022-11-29T12:41:30.336Z,97579.94
2022-11-29T12:44:06.171Z,97577.19
2022-11-29T12:46:35.551Z,97577.81
2022-11-29T12:49:17.002Z,97574.25
2022-11-29T12:51:56.091Z,97572.59
2022-11-29T12:54:38.401Z,97577.31
2022-11-29T12:57:16.591Z,97575.69
2022-11-29T13:00:09.045Z,97572.41
2022-11-29T13:02:53.653Z,97577.94
2022-11-29T13:05:35.247Z,97583.44
2022-11-29T13:08:24.505Z,97582.31
2022-11-29T13:11:03.655Z,97581.81
2022-11-29T13:13:40.450Z,97587.31
2022-11-29T13:16:30.841Z,97592.81
2022-11-29T13:19:07.531Z,97596.69
2022-11-29T13:21:44.660Z,97599.44
2022-11-29T13:24:20.859Z,97595.06
2022-11-29T13:26:50.563Z,97598.94
2022-11-29T13:29:20.037Z,97593.44
2022-11-29T13:31:50.908Z,97594.56
2022-11-29T13:34:25.601Z,97591.81
2022-11-29T13:37:05.672Z,97597.31
2022-11-29T13:39:49.027Z,97592.94
2022-11-29T13:42:22.986Z,97601.19
2022-11-29T13:44:56.625Z,97599.56
2022-11-29T13:47:26.729Z,97598.44
2022-11-29T13:50:02.180Z,97600.38
2022-11-29T13:52:38.619Z,97601.50
2022-11-29T13:55:18.382Z,97605.06
2022-11-29T14:00:50.980Z,97608.94
2022-11-29T14:03:33.404Z,97611.69
2022-11-29T14:06:12.647Z,97615.56
2022-11-29T14:09:18.476Z,97623.84
2022-11-29T14:11:50.397Z,97618.34
2022-11-29T14:14:26.088Z,97620.28
2022-11-29T14:16:58.711Z,97620.59
2022-11-29T14:19:33.709Z,97619.78
2022-11-29T14:22:30.317Z,97622.22
2022-11-29T14:25:49.619Z,97624.97
2022-11-29T14:28:30.295Z,97618.66
2022-11-29T14:31:01.433Z,97627.72
2022-11-29T14:33:39.213Z,97628.22
2022-11-29T14:36:22.105Z,97622.41
2022-11-29T14:38:57.916Z,97619.34
2022-11-29T14:41:34.088Z,97628.91
2022-11-29T14:44:18.912Z,97628.59
2022-11-29T14:46:48.853Z,97629.09
2022-11-29T14:49:23.454Z,97633.19
2022-11-29T14:52:21.507Z,97638.88
2022-11-29T14:55:09.339Z,97644.88
2022-11-29T14:58:18.282Z,97649.25
2022-11-29T15:01:01.765Z,97646.19
2022-11-29T15:03:43.459Z,97643.13
2022-11-29T15:06:16.496Z,97650.28
2022-11-29T15:08:58.423Z,97651.91
2022-11-29T15:11:36.487Z,97654.34
2022-11-29T15:14:07.943Z,97653.53
2022-11-29T15:17:10.455Z,97657.91
2022-11-29T15:20:15.170Z,97655.16
2022-11-29T15:22:52.348Z,97654.53
2022-11-29T15:25:24.480Z,97657.28
2022-11-29T15:27:54.746Z,97652.59
2022-11-29T15:30:30.971Z,97665.53
2022-11-29T15:33:01.238Z,97661.66
2022-11-29T15:35:30.044Z,97666.06
2022-11-29T15:37:58.609Z,97660.03
2022-11-29T15:40:35.352Z,97663.91
2022-11-29T15:43:16.717Z,97669.44
2022-11-29T15:45:48.581Z,97669.44
2022-11-29T15:48:20.139Z,97679.63
2022-11-29T15:50:57.457Z,97685.13
2022-11-29T15:53:30.063Z,97685.94
2022-11-29T15:56:03.049Z,97689.81
2022-11-29T15:58:34.561Z,97688.19
2022-11-29T16:01:04.425Z,97691.75
2022-11-29T16:03:36.545Z,97696.47
2022-11-29T16:06:10.198Z,97699.22
2022-11-29T16:08:43.389Z,97697.47
2022-11-29T16:11:18.116Z,97696.22
2022-11-29T16:14:14.454Z,97698.34
2022-11-29T16:16:45.995Z,97703.25
2022-11-29T16:19:31.701Z,97705.69
2022-11-29T16:22:09.836Z,97708.13
2022-11-29T16:24:39.518Z,97710.25
2022-11-29T16:27:09.506Z,97705.88
2022-11-29T16:29:44.918Z,97714.03
2022-11-29T16:32:15.801Z,97714.03
2022-11-29T16:34:45.503Z,97718.72
2022-11-29T16:37:19.569Z,97715.16
2022-11-29T16:39:50.631Z,97714.03
2022-11-29T16:42:25.942Z,97721.19
2022-11-29T16:45:28.925Z,97723.94
2022-11-29T16:47:59.607Z,97727.19
2022-11-29T16:50:29.788Z,97727.50
2022-11-29T16:53:34.823Z,97732.72
2022-11-29T16:56:03.308Z,97730.47
2022-11-29T16:58:32.009Z,97730.97
2022-11-29T17:01:00.514Z,97720.75
2022-11-29T17:03:30.509Z,97728.72
2022-11-29T17:05:59.201Z,97723.19
2022-11-29T17:08:28.000Z,97720.94
2022-11-29T17:10:56.464Z,97728.41
2022-11-29T17:13:25.181Z,97727.28
2022-11-29T17:15:53.585Z,97728.09
2022-11-29T17:18:22.318Z,97731.97
2022-11-29T17:20:55.527Z,97726.47
2022-11-29T17:23:24.473Z,97726.47
2022-11-29T17:26:00.140Z,97729.22
2022-11-29T17:28:28.986Z,97733.91
2022-11-29T17:30:57.547Z,97732.78
2022-11-29T17:33:25.987Z,97737.47
2022-11-29T17:35:55.807Z,97733.59
2022-11-29T17:38:24.284Z,97737.16
2022-11-29T17:40:52.694Z,97734.72
2022-11-29T17:43:21.101Z,97743.00
2022-11-29T17:45:49.599Z,97750.13
2022-11-29T17:48:18.660Z,97747.38
2022-11-29T17:50:47.075Z,97755.63
2022-11-29T17:53:16.841Z,97758.41
2022-11-29T17:55:45.221Z,97751.75
2022-11-29T17:58:14.066Z,97763.41
2022-11-29T18:00:42.533Z,97760.16
2022-11-29T18:03:11.007Z,97764.34
2022-11-29T18:05:39.483Z,97760.75
2022-11-29T18:08:08.123Z,97764.66
2022-11-29T18:10:37.931Z,97759.94
2022-11-29T18:13:06.358Z,97764.66
2022-11-29T18:15:34.827Z,97770.16
2022-11-29T18:18:03.279Z,97763.84
2022-11-29T18:20:31.728Z,97765.78
2022-11-29T18:23:04.997Z,97761.38
2022-11-29T18:25:39.174Z,97755.06
2022-11-29T18:28:11.235Z,97758.09
2022-11-29T18:30:39.780Z,97759.75
2022-11-29T18:33:08.235Z,97768.31
2022-11-29T18:35:36.687Z,97767.50
2022-11-29T18:38:20.422Z,97763.09
2022-11-29T18:40:48.862Z,97776.88
2022-11-29T18:43:18.606Z,97772.50
2022-11-29T18:45:47.208Z,97770.88
2022-11-29T18:48:15.652Z,97774.44
2022-11-29T18:50:44.057Z,97769.22
2022-11-29T18:53:13.805Z,97764.84
2022-11-29T18:55:42.382Z,97770.03
2022-11-29T18:58:10.797Z,97760.97
2022-11-29T19:00:40.818Z,97774.44
2022-11-29T19:03:09.317Z,97780.75
2022-11-29T19:05:37.732Z,97773.63
2022-11-29T19:08:06.352Z,97783.00
2022-11-29T19:10:34.758Z,97776.38
2022-11-29T19:13:03.126Z,97783.00
2022-11-29T19:15:31.583Z,97785.44
2022-11-29T19:18:01.366Z,97787.09
2022-11-29T19:20:30.797Z,97785.44
2022-11-29T19:23:02.396Z,97792.59
2022-11-29T19:25:30.820Z,97808.31
2022-11-29T19:27:59.280Z,97808.31
2022-11-29T19:30:27.749Z,97806.38
2022-11-29T19:32:56.591Z,97804.44
2022-11-29T19:35:26.416Z,97808.31
2022-11-29T19:37:55.087Z,97801.97
2022-11-29T19:40:23.574Z,97796.47
2022-11-29T19:42:52.012Z,97803.59
2022-11-29T19:45:21.825Z,97802.78
2022-11-29T19:47:50.600Z,97805.56
2022-11-29T19:50:19.222Z,97803.59
2022-11-29T19:52:49.049Z,97802.78
2022-11-29T19:55:17.503Z,97805.56
2022-11-29T19:57:45.884Z,97806.38
2022-11-29T20:00:15.406Z,97809.94
2022-11-29T20:02:43.989Z,97811.56
2022-11-29T20:05:12.984Z,97811.56
2022-11-29T20:07:41.459Z,97804.94
2022-11-29T20:10:12.180Z,97798.59
2022-11-29T20:12:40.659Z,97803.00
2022-11-29T20:15:09.699Z,97801.09
2022-11-29T20:17:38.383Z,97799.41
2022-11-29T20:20:08.295Z,97801.09
2022-11-29T20:22:37.179Z,97797.47
2022-11-29T20:25:06.649Z,97803.84
2022-11-29T20:27:37.022Z,97808.22
2022-11-29T20:30:06.377Z,97817.31
2022-11-29T20:32:35.991Z,97825.25
2022-11-29T20:35:05.063Z,97823.31
2022-11-29T20:37:54.086Z,97825.75
2022-11-29T20:40:29.011Z,97825.75
2022-11-29T20:43:08.103Z,97828.00
2022-11-29T20:45:37.534Z,97836.47
2022-11-29T20:48:16.091Z,97837.28
2022-11-29T20:50:47.963Z,97840.03
2022-11-29T20:53:30.909Z,97827.91
2022-11-29T20:55:59.957Z,97825.97
2022-11-29T20:58:30.075Z,97829.03
2022-11-29T21:00:58.911Z,97828.72
2022-11-29T21:03:28.388Z,97832.28
2022-11-29T21:05:58.027Z,97829.53
2022-11-29T21:08:27.289Z,97832.28
2022-11-29T21:11:01.751Z,97836.16
2022-11-29T21:13:34.178Z,97834.22
2022-11-29T21:16:03.497Z,97830.66
2022-11-29T21:18:33.775Z,97827.09
2022-11-29T21:21:14.943Z,97831.78
2022-11-29T21:23:55.394Z,97832.59
2022-11-29T21:26:26.828Z,97826.28
2022-11-29T21:29:08.191Z,97826.28
2022-11-29T21:31:37.460Z,97818.31
2022-11-29T21:34:06.037Z,97825.44
2022-11-29T21:36:34.444Z,97824.63
2022-11-29T21:39:05.276Z,97824.63
2022-11-29T21:41:33.926Z,97830.16
2022-11-29T21:44:08.061Z,97829.66
2022-11-29T21:46:36.974Z,97832.41
2022-11-29T21:49:06.148Z,97833.53
2022-11-29T21:51:34.839Z,97830.75
2022-11-29T21:54:03.383Z,97841.78
2022-11-29T21:56:31.846Z,97836.28
2022-11-29T21:59:00.313Z,97839.03
2022-11-29T22:01:30.469Z,97830.75
2022-11-29T22:03:58.970Z,97834.66
2022-11-29T22:06:29.181Z,97835.47
2022-11-29T22:08:58.018Z,97840.16
2022-11-29T22:11:34.104Z,97841.78
2022-11-29T22:14:17.977Z,97842.91
2022-11-29T22:16:49.534Z,97843.72
2022-11-29T22:19:19.592Z,97847.31
2022-11-29T22:21:49.696Z,97843.41
2022-11-29T22:24:19.630Z,97843.41
2022-11-29T22:26:48.765Z,97846.19
2022-11-29T22:29:17.498Z,97840.66
2022-11-29T22:31:48.753Z,97846.69
2022-11-29T22:34:17.759Z,97845.06
2022-11-29T22:36:46.705Z,97845.06
2022-11-29T22:39:15.715Z,97850.56
2022-11-29T22:41:46.110Z,97839.53
2022-11-29T22:44:17.929Z,97841.16
2022-11-29T22:46:47.782Z,97841.16
2022-11-29T22:49:16.499Z,97842.00
2022-11-29T22:51:44.971Z,97842.00
2022-11-29T22:54:15.328Z,97843.94
2022-11-29T22:56:45.622Z,97843.94
2022-11-29T22:59:14.952Z,97846.69
2022-11-29T23:01:43.960Z,97845.88
2022-11-29T23:04:14.105Z,97857.69
2022-11-29T23:06:44.098Z,97845.06
2022-11-29T23:09:16.554Z,97839.53
2022-11-29T23:11:46.579Z,97842.28
2022-11-29T23:14:14.989Z,97848.94
2022-11-29T23:16:43.509Z,97843.41
2022-11-29T23:19:12.246Z,97846.47
2022-11-29T23:21:44.584Z,97844.53
2022-11-29T23:24:13.513Z,97844.03
2022-11-29T23:26:44.181Z,97856.69
2022-11-29T23:29:14.623Z,97844.84
2022-11-29T23:31:43.392Z,97843.72
2022-11-29T23:34:11.903Z,97847.31
2022-11-29T23:36:40.364Z,97847.31
2022-11-29T23:39:10.359Z,97845.66
2022-11-29T23:41:38.871Z,97845.66
2022-11-29T23:44:08.699Z,97840.97
2022-11-29T23:46:37.382Z,97847.31
2022-11-29T23:49:05.864Z,97848.94
2022-11-29T23:51:34.316Z,97834.34
2022-11-29T23:54:02.709Z,97839.03
2022-11-29T23:56:35.214Z,97841.47
2022-11-29T23:59:03.768Z,97843.41
